Time;durP1;ratioP1;P1;durP2;ratioP2;P2;SDS_P1;SDS_P2;PMS_P1;PMS_P2;Temp;Humidity;BMP_temperature;BMP_pressure;BME280_temperature;BME280_humidity;BME280_pressure;Samples;Min_cycle;Max_cycle;Signal;HPM_P1;HPM_P2
2023/12/11 00:00:53;;;;;;;;;;;21.40;32.40;;;;;;5036031;28;19964;-55
2023/12/11 00:03:20;;;;;;;;;;;21.40;32.40;;;;;;5018370;28;19976;-52
2023/12/11 00:05:48;;;;;;;;;;;21.40;32.40;;;;;;5016367;28;19925;-56
2023/12/11 00:08:15;;;;;;;;;;;21.40;32.40;;;;;;5016492;28;20291;-53
2023/12/11 00:10:42;;;;;;;;;;;21.40;32.40;;;;;;4998712;28;19925;-52
2023/12/11 00:13:09;;;;;;;;;;;21.40;32.50;;;;;;5015695;28;20357;-54
2023/12/11 00:15:36;;;;;;;;;;;21.40;32.40;;;;;;5014845;28;19991;-52
2023/12/11 00:18:03;;;;;;;;;;;21.40;32.40;;;;;;5016180;28;19968;-50
2023/12/11 00:20:30;;;;;;;;;;;21.40;32.40;;;;;;5015432;28;19925;-48
2023/12/11 00:22:58;;;;;;;;;;;21.40;32.40;;;;;;5015389;28;20383;-47
2023/12/11 00:25:26;;;;;;;;;;;21.40;32.50;;;;;;5015799;28;20338;-47
2023/12/11 00:27:53;;;;;;;;;;;21.40;32.50;;;;;;5015525;28;20367;-47
2023/12/11 00:30:20;;;;;;;;;;;21.40;32.50;;;;;;5015543;28;19929;-48
2023/12/11 00:32:47;;;;;;;;;;;21.40;32.50;;;;;;5015211;28;20019;-50
2023/12/11 00:35:15;;;;;;;;;;;21.30;32.40;;;;;;5015399;28;20036;-47
2023/12/11 00:37:41;;;;;;;;;;;21.30;32.40;;;;;;4998192;28;19926;-47
2023/12/11 00:40:08;;;;;;;;;;;21.30;32.50;;;;;;4998357;28;20021;-52
2023/12/11 00:42:36;;;;;;;;;;;21.30;32.50;;;;;;5015382;28;19933;-47
2023/12/11 00:45:03;;;;;;;;;;;21.30;32.50;;;;;;5015064;28;19929;-47
2023/12/11 00:47:30;;;;;;;;;;;21.30;32.50;;;;;;5015125;28;20456;-51
2023/12/11 00:49:57;;;;;;;;;;;21.30;32.50;;;;;;5015196;28;19925;-51
2023/12/11 00:52:24;;;;;;;;;;;21.30;32.50;;;;;;5015324;28;20549;-51
2023/12/11 00:54:51;;;;;;;;;;;21.30;32.50;;;;;;5015257;28;19976;-53
2023/12/11 00:57:18;;;;;;;;;;;21.30;32.50;;;;;;5015336;28;20286;-52
2023/12/11 00:59:45;;;;;;;;;;;21.30;32.50;;;;;;5015222;28;19938;-53
2023/12/11 01:02:13;;;;;;;;;;;21.30;32.50;;;;;;5006669;28;20009;-52
2023/12/11 01:04:40;;;;;;;;;;;21.30;32.50;;;;;;4995251;28;20020;-51
2023/12/11 01:07:07;;;;;;;;;;;21.30;32.50;;;;;;4995399;28;19933;-49
2023/12/11 01:09:34;;;;;;;;;;;21.30;32.60;;;;;;4995531;28;19980;-53
2023/12/11 01:12:01;;;;;;;;;;;21.30;32.60;;;;;;4995464;28;19933;-50
2023/12/11 01:14:28;;;;;;;;;;;21.30;32.60;;;;;;4995426;28;19961;-49
2023/12/11 01:16:55;;;;;;;;;;;21.30;32.60;;;;;;5001988;28;19960;-50
2023/12/11 01:19:22;;;;;;;;;;;21.30;32.60;;;;;;5034483;28;19925;-53
2023/12/11 01:21:49;;;;;;;;;;;21.30;32.60;;;;;;5034634;28;19995;-51
2023/12/11 01:24:16;;;;;;;;;;;21.30;32.60;;;;;;5034138;28;19983;-48
2023/12/11 01:26:43;;;;;;;;;;;21.30;32.60;;;;;;5034039;28;20378;-47
2023/12/11 01:29:10;;;;;;;;;;;21.30;32.60;;;;;;5034289;28;20386;-48
2023/12/11 01:31:37;;;;;;;;;;;21.30;32.60;;;;;;5034402;28;19964;-47
2023/12/11 01:34:04;;;;;;;;;;;21.30;32.60;;;;;;5034292;28;19925;-48
2023/12/11 01:36:31;;;;;;;;;;;21.30;32.60;;;;;;5034464;28;19925;-48
2023/12/11 01:38:58;;;;;;;;;;;21.30;32.60;;;;;;5034170;28;19929;-46
2023/12/11 01:41:25;;;;;;;;;;;21.30;32.60;;;;;;5034278;28;20008;-46
2023/12/11 01:43:56;;;;;;;;;;;21.30;32.70;;;;;;5033929;28;19931;-48
2023/12/11 01:46:23;;;;;;;;;;;21.30;32.60;;;;;;5034115;28;19925;-52
2023/12/11 01:48:51;;;;;;;;;;;21.30;32.70;;;;;;5033417;28;20370;-46
2023/12/11 01:51:18;;;;;;;;;;;21.30;32.70;;;;;;5033831;28;20071;-49
2023/12/11 01:53:48;;;;;;;;;;;21.30;32.70;;;;;;5033321;28;20402;-48
2023/12/11 01:56:20;;;;;;;;;;;21.30;32.70;;;;;;5034128;28;20020;-47
2023/12/11 01:58:47;;;;;;;;;;;21.20;32.60;;;;;;5033740;28;19932;-47
2023/12/11 02:01:16;;;;;;;;;;;21.20;32.60;;;;;;5033421;28;19929;-51
2023/12/11 02:03:44;;;;;;;;;;;21.20;32.60;;;;;;4996957;28;19926;-47
2023/12/11 02:06:11;;;;;;;;;;;21.20;32.60;;;;;;5014287;28;19976;-51
2023/12/11 02:08:38;;;;;;;;;;;21.20;32.60;;;;;;5013277;28;19926;-45
2023/12/11 02:11:05;;;;;;;;;;;21.20;32.60;;;;;;5013841;28;20456;-48
2023/12/11 02:13:33;;;;;;;;;;;21.20;32.70;;;;;;5013767;28;19931;-46
2023/12/11 02:16:00;;;;;;;;;;;21.20;32.60;;;;;;5013857;28;20282;-51
2023/12/11 02:18:27;;;;;;;;;;;21.20;32.70;;;;;;5014167;28;19983;-47
2023/12/11 02:20:54;;;;;;;;;;;21.20;32.70;;;;;;5013580;28;19981;-47
2023/12/11 02:23:36;;;;;;;;;;;21.20;32.70;;;;;;5013477;28;19984;-47
2023/12/11 02:26:09;;;;;;;;;;;21.20;32.70;;;;;;5013900;28;20333;-46
2023/12/11 02:28:36;;;;;;;;;;;21.20;32.70;;;;;;5013660;28;20032;-50
2023/12/11 02:31:03;;;;;;;;;;;21.20;32.70;;;;;;5013794;28;19929;-51
2023/12/11 02:33:30;;;;;;;;;;;21.20;32.70;;;;;;5013300;28;19925;-51
2023/12/11 02:35:57;;;;;;;;;;;21.20;32.70;;;;;;5013614;28;19932;-53
2023/12/11 02:38:24;;;;;;;;;;;21.20;32.70;;;;;;5015290;28;19964;-52
2023/12/11 02:40:51;;;;;;;;;;;21.20;32.70;;;;;;5019432;28;19929;-53
2023/12/11 02:43:18;;;;;;;;;;;21.20;32.70;;;;;;5019937;28;20020;-53
2023/12/11 02:45:45;;;;;;;;;;;21.20;32.70;;;;;;5020199;28;19933;-53
2023/12/11 02:48:12;;;;;;;;;;;21.20;32.80;;;;;;5002674;28;19940;-53
2023/12/11 02:50:40;;;;;;;;;;;21.20;32.70;;;;;;5020247;28;19926;-54
2023/12/11 02:53:07;;;;;;;;;;;21.20;32.70;;;;;;5019865;28;20023;-51
2023/12/11 02:55:34;;;;;;;;;;;21.20;32.70;;;;;;5019801;28;19968;-51
2023/12/11 02:58:02;;;;;;;;;;;21.20;32.70;;;;;;5020012;28;20004;-48
2023/12/11 03:00:30;;;;;;;;;;;21.20;32.70;;;;;;5019974;28;20028;-50
2023/12/11 03:02:57;;;;;;;;;;;21.20;32.70;;;;;;5005547;28;20008;-47
2023/12/11 03:05:24;;;;;;;;;;;21.20;32.90;;;;;;5000151;28;19933;-53
2023/12/11 03:07:51;;;;;;;;;;;21.20;32.80;;;;;;4999960;28;19975;-52
2023/12/11 03:10:18;;;;;;;;;;;21.20;33.30;;;;;;5000018;28;19980;-47
2023/12/11 03:12:45;;;;;;;;;;;21.20;32.80;;;;;;4999872;28;20016;-48
2023/12/11 03:15:13;;;;;;;;;;;21.20;32.80;;;;;;5000437;28;20327;-49
2023/12/11 03:17:40;;;;;;;;;;;21.20;32.80;;;;;;5000275;28;19926;-48
2023/12/11 03:20:09;;;;;;;;;;;21.20;32.80;;;;;;5000401;28;20016;-46
2023/12/11 03:22:36;;;;;;;;;;;21.20;32.80;;;;;;4999612;28;20432;-48
2023/12/11 03:25:03;;;;;;;;;;;21.20;32.80;;;;;;5000367;28;19972;-46
2023/12/11 03:27:30;;;;;;;;;;;21.20;33.40;;;;;;4999878;28;19972;-49
2023/12/11 03:29:57;;;;;;;;;;;21.20;33.40;;;;;;4999996;28;19932;-48
2023/12/11 03:32:24;;;;;;;;;;;21.20;32.80;;;;;;4999700;28;19926;-48
2023/12/11 03:34:51;;;;;;;;;;;21.20;32.80;;;;;;5000089;28;20406;-48
2023/12/11 03:37:18;;;;;;;;;;;21.10;32.80;;;;;;4999800;28;19932;-50
2023/12/11 03:39:45;;;;;;;;;;;21.10;32.80;;;;;;4999928;28;19926;-48
2023/12/11 03:42:12;;;;;;;;;;;21.10;32.80;;;;;;5000070;28;19972;-49
2023/12/11 03:44:39;;;;;;;;;;;21.10;32.80;;;;;;4999618;28;20013;-48
2023/12/11 03:47:06;;;;;;;;;;;21.10;32.80;;;;;;4999995;28;19926;-50
2023/12/11 03:49:34;;;;;;;;;;;21.10;32.80;;;;;;4998654;28;19925;-48
2023/12/11 03:52:01;;;;;;;;;;;21.10;32.80;;;;;;4996061;28;19932;-48
2023/12/11 03:54:28;;;;;;;;;;;21.10;32.80;;;;;;4996523;28;19929;-50
2023/12/11 03:56:55;;;;;;;;;;;21.10;32.80;;;;;;4996871;28;19988;-49
2023/12/11 03:59:22;;;;;;;;;;;21.10;32.80;;;;;;4996408;28;20009;-48
2023/12/11 04:01:49;;;;;;;;;;;21.10;32.80;;;;;;5001211;28;19925;-49
2023/12/11 04:04:16;;;;;;;;;;;21.10;32.90;;;;;;5016084;28;20383;-47
2023/12/11 04:06:43;;;;;;;;;;;21.10;32.90;;;;;;5015827;28;20015;-50
2023/12/11 04:09:10;;;;;;;;;;;21.10;32.90;;;;;;5016316;28;19973;-51
2023/12/11 04:11:37;;;;;;;;;;;21.10;32.90;;;;;;5016017;28;19930;-47
2023/12/11 04:14:04;;;;;;;;;;;21.10;32.90;;;;;;5016035;28;19925;-51
2023/12/11 04:16:31;;;;;;;;;;;21.10;32.90;;;;;;5016240;28;20013;-50
2023/12/11 04:18:58;;;;;;;;;;;21.20;32.90;;;;;;5015590;28;19925;-50
2023/12/11 04:21:26;;;;;;;;;;;21.10;32.90;;;;;;5016020;28;19948;-47
2023/12/11 04:23:55;;;;;;;;;;;21.20;32.90;;;;;;5015549;28;19925;-49
2023/12/11 04:26:24;;;;;;;;;;;21.10;32.90;;;;;;5016059;28;20016;-52
2023/12/11 04:28:51;;;;;;;;;;;21.10;32.90;;;;;;5015273;28;20414;-50
2023/12/11 04:31:21;;;;;;;;;;;21.10;33.40;;;;;;5015704;28;20017;-53
2023/12/11 04:33:48;;;;;;;;;;;21.10;32.90;;;;;;5015382;28;20023;-53
2023/12/11 04:36:15;;;;;;;;;;;21.10;32.90;;;;;;5015755;28;20292;-52
2023/12/11 04:38:42;;;;;;;;;;;21.10;32.90;;;;;;5015196;28;20401;-53
2023/12/11 04:41:09;;;;;;;;;;;21.10;32.80;;;;;;5015394;28;20016;-52
2023/12/11 04:43:36;;;;;;;;;;;21.10;32.80;;;;;;5026473;28;20019;-54
2023/12/11 04:46:03;;;;;;;;;;;21.10;32.70;;;;;;5035144;28;20382;-52
2023/12/11 04:48:30;;;;;;;;;;;21.20;32.80;;;;;;5034773;28;20016;-50
2023/12/11 04:50:57;;;;;;;;;;;21.20;32.80;;;;;;5034964;28;20409;-52
2023/12/11 04:53:24;;;;;;;;;;;21.20;32.70;;;;;;5034925;28;20012;-54
2023/12/11 04:55:51;;;;;;;;;;;21.20;32.70;;;;;;5034832;28;19925;-47
2023/12/11 04:58:20;;;;;;;;;;;21.20;32.60;;;;;;5035053;28;19979;-46
2023/12/11 05:00:47;;;;;;;;;;;21.20;32.60;;;;;;5034249;28;19983;-54
2023/12/11 05:03:14;;;;;;;;;;;21.30;32.60;;;;;;5018008;28;19925;-51
2023/12/11 05:05:41;;;;;;;;;;;21.30;33.10;;;;;;5015536;28;19969;-49
2023/12/11 05:08:08;;;;;;;;;;;21.40;32.50;;;;;;5014657;28;20375;-48
2023/12/11 05:10:35;;;;;;;;;;;21.40;32.40;;;;;;5013931;28;19926;-48
2023/12/11 05:13:02;;;;;;;;;;;21.40;32.30;;;;;;5010095;28;19933;-49
2023/12/11 05:15:29;;;;;;;;;;;21.50;32.30;;;;;;5014999;28;20379;-51
2023/12/11 05:17:56;;;;;;;;;;;21.60;32.20;;;;;;5014941;28;20351;-47
2023/12/11 05:20:23;;;;;;;;;;;21.60;32.10;;;;;;5014702;28;19972;-48
2023/12/11 05:22:50;;;;;;;;;;;21.70;32.00;;;;;;5014344;28;19988;-47
2023/12/11 05:25:17;;;;;;;;;;;21.70;32.00;;;;;;5014630;28;19952;-53
2023/12/11 05:27:44;;;;;;;;;;;21.80;31.90;;;;;;5014602;28;19925;-49
2023/12/11 05:30:11;;;;;;;;;;;21.80;31.80;;;;;;5014685;28;19925;-48
2023/12/11 05:32:38;;;;;;;;;;;21.90;31.80;;;;;;5014056;28;20024;-48
2023/12/11 05:35:06;;;;;;;;;;;21.90;31.70;;;;;;4996974;28;20446;-49
2023/12/11 05:37:33;;;;;;;;;;;22.00;31.70;;;;;;4980912;28;20020;-47
2023/12/11 05:40:00;;;;;;;;;;;22.00;31.60;;;;;;5014603;28;20020;-49
2023/12/11 05:42:47;;;;;;;;;;;22.10;31.50;;;;;;5014202;28;19926;-50
2023/12/11 05:45:14;;;;;;;;;;;22.10;31.40;;;;;;5014093;28;20403;-48
2023/12/11 05:47:41;;;;;;;;;;;22.20;31.40;;;;;;5014377;28;20037;-48
2023/12/11 05:50:09;;;;;;;;;;;22.20;31.30;;;;;;5014286;28;19929;-47
2023/12/11 05:52:36;;;;;;;;;;;22.20;31.30;;;;;;5013610;28;19929;-47
2023/12/11 05:55:03;;;;;;;;;;;22.30;31.20;;;;;;5020774;28;19929;-49
2023/12/11 05:57:30;;;;;;;;;;;22.30;31.20;;;;;;5032969;28;19947;-53
2023/12/11 05:59:58;;;;;;;;;;;22.40;31.10;;;;;;5033762;28;19976;-46
2023/12/11 06:02:25;;;;;;;;;;;22.40;31.10;;;;;;5024040;28;20015;-47
2023/12/11 06:04:52;;;;;;;;;;;22.40;31.10;;;;;;5005631;28;20397;-47
2023/12/11 06:07:19;;;;;;;;;;;22.50;31.10;;;;;;5011030;28;19925;-47
2023/12/11 06:09:46;;;;;;;;;;;22.50;31.10;;;;;;4987398;28;19926;-47
2023/12/11 06:12:14;;;;;;;;;;;22.60;31.00;;;;;;4999679;28;19925;-47
2023/12/11 06:14:42;;;;;;;;;;;22.60;31.00;;;;;;5007826;28;19936;-47
2023/12/11 06:17:14;;;;;;;;;;;22.60;31.00;;;;;;4997530;28;20024;-51
2023/12/11 06:19:42;;;;;;;;;;;22.60;30.90;;;;;;4997420;28;19933;-55
2023/12/11 06:22:09;;;;;;;;;;;22.70;31.10;;;;;;5003947;28;19926;-53
2023/12/11 06:24:40;;;;;;;;;;;22.70;31.10;;;;;;5002709;28;20021;-53
2023/12/11 06:27:08;;;;;;;;;;;22.70;30.90;;;;;;4996411;28;19968;-54
2023/12/11 06:29:35;;;;;;;;;;;22.80;30.90;;;;;;4998959;28;21459;-57
2023/12/11 06:32:02;;;;;;;;;;;22.80;31.00;;;;;;5002178;28;19930;-54
2023/12/11 06:34:30;;;;;;;;;;;22.80;31.00;;;;;;4980844;28;19969;-56
2023/12/11 06:36:57;;;;;;;;;;;22.90;31.00;;;;;;4997946;28;20083;-57
2023/12/11 06:39:26;;;;;;;;;;;23.00;31.10;;;;;;4998286;28;19934;-52
2023/12/11 06:41:54;;;;;;;;;;;23.00;31.40;;;;;;4996780;28;19944;-54
2023/12/11 06:44:22;;;;;;;;;;;23.10;31.60;;;;;;5001157;28;19933;-46
2023/12/11 06:46:49;;;;;;;;;;;23.10;31.50;;;;;;4998764;28;20021;-53
2023/12/11 06:49:16;;;;;;;;;;;23.10;31.40;;;;;;4982506;28;19937;-51
2023/12/11 06:51:43;;;;;;;;;;;23.10;31.30;;;;;;4995204;28;19945;-49
2023/12/11 06:54:11;;;;;;;;;;;23.10;31.40;;;;;;4994600;28;20279;-52
2023/12/11 06:56:38;;;;;;;;;;;23.20;31.30;;;;;;4992787;28;20023;-51
2023/12/11 06:59:05;;;;;;;;;;;23.30;31.50;;;;;;4995672;28;19929;-50
2023/12/11 07:01:33;;;;;;;;;;;23.30;31.40;;;;;;4997069;28;20267;-53
2023/12/11 07:04:01;;;;;;;;;;;23.30;31.10;;;;;;4998414;28;19934;-57
2023/12/11 07:06:28;;;;;;;;;;;23.40;31.30;;;;;;4999265;28;19937;-52
2023/12/11 07:08:56;;;;;;;;;;;23.50;31.40;;;;;;5003246;28;20338;-54
2023/12/11 07:11:24;;;;;;;;;;;23.50;31.50;;;;;;4994393;28;20424;-54
2023/12/11 07:13:52;;;;;;;;;;;23.60;31.50;;;;;;4999140;28;20020;-51
2023/12/11 07:16:19;;;;;;;;;;;23.60;31.40;;;;;;4980754;28;19973;-52
2023/12/11 07:18:46;;;;;;;;;;;23.60;31.40;;;;;;4998517;28;19987;-54
2023/12/11 07:21:14;;;;;;;;;;;23.60;31.30;;;;;;4997761;28;19925;-56
2023/12/11 07:23:41;;;;;;;;;;;23.70;31.50;;;;;;4999350;28;20046;-52
2023/12/11 07:26:09;;;;;;;;;;;23.70;31.50;;;;;;4998271;28;20588;-54
2023/12/11 07:28:37;;;;;;;;;;;23.70;31.40;;;;;;4984121;28;19940;-50
2023/12/11 07:31:05;;;;;;;;;;;23.70;31.50;;;;;;5000150;28;20011;-57
2023/12/11 07:33:33;;;;;;;;;;;23.70;31.50;;;;;;4999642;28;19933;-56
2023/12/11 07:36:01;;;;;;;;;;;23.80;31.40;;;;;;5006213;28;20634;-55
2023/12/11 07:38:28;;;;;;;;;;;23.90;31.40;;;;;;5003407;28;19973;-54
2023/12/11 07:40:56;;;;;;;;;;;23.90;31.10;;;;;;5005266;28;20433;-56
2023/12/11 07:43:23;;;;;;;;;;;23.90;30.80;;;;;;5003302;28;20465;-54
2023/12/11 07:45:51;;;;;;;;;;;23.90;30.80;;;;;;5003792;28;19973;-52
2023/12/11 07:48:19;;;;;;;;;;;24.00;30.80;;;;;;5001371;28;19933;-55
2023/12/11 07:50:46;;;;;;;;;;;24.00;30.70;;;;;;4998639;28;20017;-53
2023/12/11 07:53:14;;;;;;;;;;;24.10;30.70;;;;;;4985506;28;19926;-54
2023/12/11 07:55:41;;;;;;;;;;;24.10;30.70;;;;;;5004024;28;20474;-56
2023/12/11 07:58:08;;;;;;;;;;;24.10;30.70;;;;;;5000734;28;20340;-57
2023/12/11 08:00:35;;;;;;;;;;;24.10;30.70;;;;;;5003868;28;19937;-51
2023/12/11 08:03:04;;;;;;;;;;;24.20;30.70;;;;;;5005978;28;19937;-53
2023/12/11 08:05:31;;;;;;;;;;;24.20;30.70;;;;;;5008260;28;19965;-53
2023/12/11 08:07:58;;;;;;;;;;;24.30;30.80;;;;;;4996049;28;20441;-56
2023/12/11 08:10:25;;;;;;;;;;;24.30;30.90;;;;;;4973194;28;19934;-54
2023/12/11 08:12:53;;;;;;;;;;;24.40;30.90;;;;;;4990085;28;19938;-55
2023/12/11 08:15:20;;;;;;;;;;;24.40;30.90;;;;;;5003360;28;20020;-56
2023/12/11 08:17:47;;;;;;;;;;;24.50;31.00;;;;;;4991963;28;19930;-54
2023/12/11 08:20:19;;;;;;;;;;;24.50;30.90;;;;;;5005020;28;19933;-57
2023/12/11 08:22:47;;;;;;;;;;;24.60;30.90;;;;;;5009753;28;19934;-51
2023/12/11 08:25:15;;;;;;;;;;;24.70;30.90;;;;;;4966577;28;19944;-53
2023/12/11 08:27:42;;;;;;;;;;;24.70;30.90;;;;;;5003819;28;19933;-54
2023/12/11 08:30:10;;;;;;;;;;;24.80;30.90;;;;;;5004376;28;19929;-52
2023/12/11 08:32:38;;;;;;;;;;;24.80;31.00;;;;;;5004099;28;19956;-53
2023/12/11 08:35:07;;;;;;;;;;;24.80;30.80;;;;;;5005680;28;19952;-53
2023/12/11 08:37:35;;;;;;;;;;;24.90;30.80;;;;;;5006282;28;20286;-56
2023/12/11 08:40:04;;;;;;;;;;;24.90;30.70;;;;;;5005866;28;20435;-55
2023/12/11 08:42:35;;;;;;;;;;;25.00;30.70;;;;;;5001759;28;19961;-55
2023/12/11 08:45:07;;;;;;;;;;;25.10;30.70;;;;;;5002749;28;19926;-54
2023/12/11 08:47:35;;;;;;;;;;;25.10;30.50;;;;;;4999558;28;19933;-57
2023/12/11 08:50:06;;;;;;;;;;;25.20;30.50;;;;;;5004434;28;19926;-51
2023/12/11 08:52:33;;;;;;;;;;;25.30;30.40;;;;;;5003587;28;19930;-55
2023/12/11 08:55:00;;;;;;;;;;;25.30;30.20;;;;;;5001862;28;19934;-52
2023/12/11 08:57:28;;;;;;;;;;;25.30;30.10;;;;;;5003938;28;19943;-56
2023/12/11 08:59:57;;;;;;;;;;;25.40;30.10;;;;;;5005166;28;20008;-53
2023/12/11 09:02:25;;;;;;;;;;;25.40;30.20;;;;;;5003879;28;19978;-52
2023/12/11 09:04:52;;;;;;;;;;;25.40;30.20;;;;;;5002631;28;19973;-50
2023/12/11 09:07:19;;;;;;;;;;;25.40;30.20;;;;;;5003906;28;19929;-55
2023/12/11 09:09:46;;;;;;;;;;;25.40;30.30;;;;;;5009595;28;20445;-49
2023/12/11 09:12:13;;;;;;;;;;;25.40;30.20;;;;;;5005412;28;19935;-54
2023/12/11 09:14:56;;;;;;;;;;;25.40;30.20;;;;;;5002654;28;20315;-49
2023/12/11 09:17:24;;;;;;;;;;;25.50;30.40;;;;;;5007979;28;19925;-52
2023/12/11 09:19:51;;;;;;;;;;;25.50;30.20;;;;;;5002994;28;19982;-54
2023/12/11 09:22:22;;;;;;;;;;;25.50;30.20;;;;;;4987796;28;19937;-50
2023/12/11 09:24:50;;;;;;;;;;;25.50;30.10;;;;;;5002129;28;20422;-52
2023/12/11 09:27:17;;;;;;;;;;;25.60;30.40;;;;;;5003431;28;20387;-49
2023/12/11 09:29:48;;;;;;;;;;;25.60;30.20;;;;;;5001305;28;19937;-54
2023/12/11 09:32:15;;;;;;;;;;;25.60;30.20;;;;;;4997937;28;19929;-55
2023/12/11 09:34:43;;;;;;;;;;;25.60;30.20;;;;;;4998731;28;20829;-54
2023/12/11 09:37:10;;;;;;;;;;;25.70;30.30;;;;;;5003068;28;20017;-52
2023/12/11 09:39:38;;;;;;;;;;;25.70;30.10;;;;;;5000763;28;19925;-56
2023/12/11 09:42:07;;;;;;;;;;;25.70;30.10;;;;;;4979740;28;19929;-52
2023/12/11 09:44:34;;;;;;;;;;;25.70;30.10;;;;;;5001090;28;19938;-53
2023/12/11 09:47:03;;;;;;;;;;;25.70;30.10;;;;;;5000042;28;20003;-51
2023/12/11 09:49:32;;;;;;;;;;;25.80;30.20;;;;;;4999468;28;19929;-50
2023/12/11 09:52:00;;;;;;;;;;;25.90;30.20;;;;;;5004871;28;19925;-52
2023/12/11 09:54:27;;;;;;;;;;;25.90;30.10;;;;;;4984724;28;19936;-54
2023/12/11 09:56:54;;;;;;;;;;;26.00;30.20;;;;;;5001087;28;20334;-53
2023/12/11 09:59:22;;;;;;;;;;;26.00;30.10;;;;;;5003446;28;20007;-52
2023/12/11 10:01:50;;;;;;;;;;;26.10;30.00;;;;;;4998668;28;19926;-53
2023/12/11 10:04:17;;;;;;;;;;;26.10;30.00;;;;;;4999789;28;19975;-51
2023/12/11 10:06:44;;;;;;;;;;;26.10;29.90;;;;;;5006069;28;19926;-51
2023/12/11 10:09:29;;;;;;;;;;;26.20;29.90;;;;;;5001824;28;19932;-53
2023/12/11 10:12:00;;;;;;;;;;;26.20;29.90;;;;;;5001673;28;20389;-52
2023/12/11 10:14:28;;;;;;;;;;;26.20;29.90;;;;;;4997449;28;20270;-50
2023/12/11 10:16:56;;;;;;;;;;;26.20;29.90;;;;;;5005955;28;19968;-55
2023/12/11 10:19:33;;;;;;;;;;;26.30;30.00;;;;;;5001450;28;19933;-53
2023/12/11 10:22:00;;;;;;;;;;;26.30;29.90;;;;;;4983650;28;21306;-49
2023/12/11 10:24:29;;;;;;;;;;;26.20;29.90;;;;;;5003989;28;19985;-51
2023/12/11 10:27:02;;;;;;;;;;;26.30;29.90;;;;;;5000834;28;19933;-54
2023/12/11 10:29:30;;;;;;;;;;;26.30;29.90;;;;;;5002456;28;20139;-51
2023/12/11 10:32:01;;;;;;;;;;;26.30;29.90;;;;;;4998433;28;19933;-50
2023/12/11 10:34:43;;;;;;;;;;;26.30;29.90;;;;;;4998372;28;20024;-53
2023/12/11 10:37:11;;;;;;;;;;;26.30;29.90;;;;;;4999370;28;19989;-53
2023/12/11 10:39:38;;;;;;;;;;;26.30;29.90;;;;;;5002652;28;19934;-55
2023/12/11 10:42:12;;;;;;;;;;;26.30;29.90;;;;;;5004703;28;19926;-52
2023/12/11 10:44:39;;;;;;;;;;;26.30;29.90;;;;;;4999697;28;20052;-52
2023/12/11 10:47:18;;;;;;;;;;;26.30;29.90;;;;;;5001115;28;20620;-54
2023/12/11 10:49:46;;;;;;;;;;;26.30;29.90;;;;;;4985950;28;20434;-53
2023/12/11 10:52:13;;;;;;;;;;;26.30;29.90;;;;;;5004388;28;19933;-53
2023/12/11 10:54:43;;;;;;;;;;;26.30;29.90;;;;;;5002776;28;20016;-51
2023/12/11 10:57:14;;;;;;;;;;;26.30;29.90;;;;;;5001213;28;20263;-52
2023/12/11 10:59:43;;;;;;;;;;;26.30;29.90;;;;;;4998943;28;19937;-52
2023/12/11 11:02:12;;;;;;;;;;;26.20;29.90;;;;;;5005142;28;20020;-50
2023/12/11 11:04:41;;;;;;;;;;;26.30;29.90;;;;;;4985217;28;20299;-51
2023/12/11 11:07:23;;;;;;;;;;;26.30;30.00;;;;;;5002522;28;20024;-49
2023/12/11 11:10:10;;;;;;;;;;;26.30;30.30;;;;;;5002909;28;20371;-57
2023/12/11 11:12:42;;;;;;;;;;;26.20;30.20;;;;;;5007170;28;19930;-52
2023/12/11 11:15:12;;;;;;;;;;;26.20;30.30;;;;;;5002318;28;19925;-52
2023/12/11 11:17:59;;;;;;;;;;;26.20;30.30;;;;;;5007091;28;20342;-53
2023/12/11 11:20:27;;;;;;;;;;;26.10;30.40;;;;;;5003955;28;19962;-53
2023/12/11 11:23:14;;;;;;;;;;;26.10;30.40;;;;;;4987249;28;20346;-54
2023/12/11 11:25:45;;;;;;;;;;;26.10;30.60;;;;;;5003974;28;19925;-57
2023/12/11 11:28:32;;;;;;;;;;;26.10;30.50;;;;;;5002169;28;19930;-56
2023/12/11 11:30:59;;;;;;;;;;;26.10;30.50;;;;;;5006846;28;19975;-56
2023/12/11 11:33:42;;;;;;;;;;;26.00;30.40;;;;;;4988187;28;19926;-53
2023/12/11 11:36:10;;;;;;;;;;;26.00;30.60;;;;;;5006654;28;19933;-53
2023/12/11 11:38:51;;;;;;;;;;;26.00;30.90;;;;;;5002027;28;19927;-50
2023/12/11 11:41:22;;;;;;;;;;;26.00;31.10;;;;;;5003925;28;20314;-54
2023/12/11 11:43:56;;;;;;;;;;;25.90;31.10;;;;;;5002377;28;20440;-50
2023/12/11 11:46:24;;;;;;;;;;;25.90;31.20;;;;;;5006375;28;19925;-54
2023/12/11 11:48:51;;;;;;;;;;;25.90;31.40;;;;;;5004608;28;20024;-53
2023/12/11 11:51:19;;;;;;;;;;;25.90;31.40;;;;;;5003975;28;19933;-52
2023/12/11 11:53:49;;;;;;;;;;;25.90;31.40;;;;;;5000893;28;19926;-53
2023/12/11 11:56:16;;;;;;;;;;;25.90;31.50;;;;;;5005448;28;19972;-54
2023/12/11 11:58:44;;;;;;;;;;;25.90;31.50;;;;;;5003058;28;19926;-49
2023/12/11 12:01:11;;;;;;;;;;;25.90;31.50;;;;;;5006022;28;19951;-48
2023/12/11 12:03:42;;;;;;;;;;;25.90;31.50;;;;;;5000411;28;20504;-52
2023/12/11 12:06:10;;;;;;;;;;;25.90;31.50;;;;;;4998633;28;19929;-55
2023/12/11 12:08:41;;;;;;;;;;;25.80;31.40;;;;;;5001507;28;19988;-51
2023/12/11 12:11:11;;;;;;;;;;;25.80;31.40;;;;;;5002113;28;19925;-51
2023/12/11 12:13:38;;;;;;;;;;;25.80;31.40;;;;;;5006395;28;19929;-54
2023/12/11 12:16:05;;;;;;;;;;;25.80;31.50;;;;;;4980582;28;19940;-51
2023/12/11 12:18:32;;;;;;;;;;;25.80;31.50;;;;;;4996387;28;19944;-54
2023/12/11 12:21:01;;;;;;;;;;;25.80;32.10;;;;;;5005782;28;19926;-53
2023/12/11 12:23:28;;;;;;;;;;;25.80;31.80;;;;;;5003850;28;20280;-54
2023/12/11 12:25:59;;;;;;;;;;;25.80;31.90;;;;;;5000776;28;20645;-52
2023/12/11 12:28:26;;;;;;;;;;;25.70;32.00;;;;;;4986007;28;20299;-52
2023/12/11 12:30:54;;;;;;;;;;;25.70;32.00;;;;;;5002231;28;19941;-50
2023/12/11 12:33:21;;;;;;;;;;;25.70;32.10;;;;;;4985189;28;19948;-50
2023/12/11 12:35:49;;;;;;;;;;;25.70;32.00;;;;;;5005900;28;19953;-52
2023/12/11 12:38:16;;;;;;;;;;;25.70;32.10;;;;;;4998744;28;19930;-48
2023/12/11 12:40:43;;;;;;;;;;;25.70;32.20;;;;;;5001906;28;19930;-52
2023/12/11 12:43:11;;;;;;;;;;;25.70;32.30;;;;;;5002158;28;19933;-52
2023/12/11 12:45:38;;;;;;;;;;;25.70;32.30;;;;;;5003489;28;19933;-50
2023/12/11 12:48:08;;;;;;;;;;;25.70;32.30;;;;;;4998135;28;20349;-50
2023/12/11 12:50:35;;;;;;;;;;;25.60;32.20;;;;;;5005286;28;20434;-51
2023/12/11 12:53:03;;;;;;;;;;;25.60;32.20;;;;;;5005461;28;19925;-53
2023/12/11 12:55:30;;;;;;;;;;;25.70;32.30;;;;;;5003311;28;19998;-50
2023/12/11 12:57:58;;;;;;;;;;;25.70;32.30;;;;;;5003085;28;19944;-53
2023/12/11 13:00:25;;;;;;;;;;;25.70;32.30;;;;;;5005780;28;19929;-51
2023/12/11 13:02:52;;;;;;;;;;;25.70;32.20;;;;;;5006382;28;19933;-53
2023/12/11 13:05:19;;;;;;;;;;;25.70;32.20;;;;;;5007131;28;19967;-49
2023/12/11 13:07:57;;;;;;;;;;;25.70;32.20;;;;;;5009560;28;19929;-52
2023/12/11 13:10:25;;;;;;;;;;;25.70;32.20;;;;;;5007186;28;19930;-50
2023/12/11 13:12:52;;;;;;;;;;;25.70;32.50;;;;;;4998799;28;19929;-49
2023/12/11 13:15:19;;;;;;;;;;;25.70;32.50;;;;;;5002715;28;19926;-51
2023/12/11 13:17:51;;;;;;;;;;;25.60;32.40;;;;;;5002178;28;20024;-51
2023/12/11 13:20:19;;;;;;;;;;;25.60;32.50;;;;;;5000307;28;19933;-51
2023/12/11 13:22:48;;;;;;;;;;;25.60;32.50;;;;;;4993592;28;19933;-49
2023/12/11 13:25:15;;;;;;;;;;;25.50;32.40;;;;;;5002127;28;19933;-52
2023/12/11 13:27:46;;;;;;;;;;;25.50;32.50;;;;;;5001251;28;20292;-48
2023/12/11 13:30:15;;;;;;;;;;;25.50;32.50;;;;;;5004063;28;19946;-52
2023/12/11 13:32:42;;;;;;;;;;;25.50;32.50;;;;;;5004401;28;19925;-52
2023/12/11 13:35:10;;;;;;;;;;;25.40;32.40;;;;;;5006644;28;20012;-51
2023/12/11 13:37:38;;;;;;;;;;;25.40;32.40;;;;;;4998043;28;19926;-55
2023/12/11 13:40:06;;;;;;;;;;;25.40;32.50;;;;;;4987204;28;19933;-54
2023/12/11 13:42:33;;;;;;;;;;;25.40;32.50;;;;;;5002445;28;19926;-51
2023/12/11 13:45:00;;;;;;;;;;;25.40;32.50;;;;;;5005058;28;20385;-50
2023/12/11 13:47:28;;;;;;;;;;;25.40;32.50;;;;;;4997924;28;19929;-54
2023/12/11 13:49:56;;;;;;;;;;;25.40;32.40;;;;;;5000842;28;19929;-50
2023/12/11 13:52:23;;;;;;;;;;;25.30;32.30;;;;;;5002582;28;19929;-53
2023/12/11 13:54:50;;;;;;;;;;;25.30;32.30;;;;;;5003535;28;19925;-49
2023/12/11 13:57:20;;;;;;;;;;;25.30;32.20;;;;;;5003972;28;19929;-53
2023/12/11 13:59:49;;;;;;;;;;;25.30;32.20;;;;;;4995274;28;19929;-52
2023/12/11 14:02:19;;;;;;;;;;;25.20;32.30;;;;;;4998405;28;20328;-53
2023/12/11 14:05:06;;;;;;;;;;;25.20;32.40;;;;;;4998315;28;19930;-51
2023/12/11 14:07:34;;;;;;;;;;;25.20;32.40;;;;;;5006981;28;19933;-53
2023/12/11 14:10:01;;;;;;;;;;;25.20;32.50;;;;;;5005318;28;20359;-53
2023/12/11 14:12:28;;;;;;;;;;;25.20;32.50;;;;;;5002430;28;20213;-51
2023/12/11 14:14:55;;;;;;;;;;;25.10;32.50;;;;;;4998062;28;19992;-53
2023/12/11 14:17:22;;;;;;;;;;;25.10;32.70;;;;;;4982257;28;19931;-48
2023/12/11 14:19:49;;;;;;;;;;;25.10;32.90;;;;;;5000107;28;19933;-51
2023/12/11 14:22:16;;;;;;;;;;;25.10;33.10;;;;;;5005013;28;19926;-49